Time;durP1;ratioP1;P1;durP2;ratioP2;P2;SDS_P1;SDS_P2;PMS_P1;PMS_P2;Temp;Humidity;BMP_temperature;BMP_pressure;BME280_temperature;BME280_humidity;BME280_pressure;Samples;Min_cycle;Max_cycle;Signal;HPM_P1;HPM_P2
2023/07/17 00:00:58;;;;;;;2.67;2.47;;;26.70;49.40;;;;;;5035345;28;20211;-89
2023/07/17 00:03:25;;;;;;;9.43;2.63;;;26.70;49.40;;;;;;5055468;28;20284;-89
2023/07/17 00:05:51;;;;;;;2.60;2.30;;;26.70;49.50;;;;;;5038431;28;20188;-89
2023/07/17 00:08:17;;;;;;;2.70;2.30;;;26.70;49.50;;;;;;5049411;28;20345;-89
2023/07/17 00:10:44;;;;;;;3.10;2.33;;;26.70;49.40;;;;;;5047756;28;20283;-89
2023/07/17 00:13:09;;;;;;;2.67;2.40;;;26.70;49.40;;;;;;5039178;28;20269;-89
2023/07/17 00:15:35;;;;;;;3.13;2.40;;;26.60;49.40;;;;;;5046615;28;20298;-89
2023/07/17 00:18:01;;;;;;;3.03;2.40;;;26.60;49.40;;;;;;5037656;28;20187;-89
2023/07/17 00:20:27;;;;;;;2.80;2.37;;;26.60;49.40;;;;;;5043704;28;20718;-89
2023/07/17 00:22:52;;;;;;;3.73;2.50;;;26.60;49.40;;;;;;5035903;28;20727;-89
2023/07/17 00:25:18;;;;;;;3.10;2.50;;;26.60;49.40;;;;;;5034151;28;20367;-89
2023/07/17 00:27:44;;;;;;;2.80;2.40;;;26.60;49.40;;;;;;5044240;28;20471;-89
2023/07/17 00:30:10;;;;;;;2.73;2.43;;;26.60;49.30;;;;;;5053812;28;20191;-89
2023/07/17 00:32:35;;;;;;;3.33;2.43;;;26.60;49.40;;;;;;5037797;28;20593;-89
2023/07/17 00:35:01;;;;;;;2.47;2.27;;;26.60;49.30;;;;;;5055183;28;20624;-89
2023/07/17 00:37:27;;;;;;;2.40;2.20;;;26.60;49.40;;;;;;5036883;28;20480;-89
2023/07/17 00:39:53;;;;;;;2.50;2.30;;;26.60;49.40;;;;;;5046052;28;20509;-89
2023/07/17 00:42:18;;;;;;;5.00;2.50;;;26.50;49.40;;;;;;5036335;28;20531;-89
2023/07/17 00:44:44;;;;;;;2.40;2.20;;;26.50;49.40;;;;;;5043627;28;20219;-89
2023/07/17 00:47:10;;;;;;;2.83;2.20;;;26.60;49.40;;;;;;5037461;28;20190;-89
2023/07/17 00:49:37;;;;;;;3.40;2.33;;;26.50;49.40;;;;;;5054620;28;20188;-89
2023/07/17 00:52:04;;;;;;;3.07;2.47;;;26.50;49.30;;;;;;5036847;28;20195;-89
2023/07/17 00:54:31;;;;;;;2.73;2.47;;;26.50;49.30;;;;;;5045016;28;20219;-89
2023/07/17 00:56:59;;;;;;;2.67;2.47;;;26.50;49.40;;;;;;5035739;28;20194;-88
2023/07/17 00:59:26;;;;;;;3.17;2.37;;;26.40;49.40;;;;;;5043362;28;20551;-89
2023/07/17 01:01:52;;;;;;;2.40;2.20;;;26.50;49.40;;;;;;5035652;28;20293;-89
2023/07/17 01:04:17;;;;;;;2.90;2.50;;;26.40;49.40;;;;;;5032082;28;20255;-89
2023/07/17 01:06:43;;;;;;;3.43;2.57;;;26.40;49.40;;;;;;5044631;28;20188;-89
2023/07/17 01:09:10;;;;;;;2.90;2.40;;;26.40;49.40;;;;;;5035704;28;20357;-89
2023/07/17 01:11:36;;;;;;;2.57;2.37;;;26.40;49.30;;;;;;5050912;28;20593;-89
2023/07/17 01:14:02;;;;;;;3.00;2.30;;;26.40;49.40;;;;;;5033766;28;20260;-88
2023/07/17 01:16:27;;;;;;;2.73;2.30;;;26.40;49.40;;;;;;5045413;28;20728;-88
2023/07/17 01:18:53;;;;;;;3.07;2.53;;;26.30;49.40;;;;;;5037441;28;20188;-88
2023/07/17 01:21:25;;;;;;;2.60;2.23;;;26.30;49.40;;;;;;5046852;28;20187;-88
2023/07/17 01:23:52;;;;;;;2.83;2.27;;;26.30;49.40;;;;;;5046972;28;20213;-88
2023/07/17 01:26:18;;;;;;;2.70;2.30;;;26.30;49.40;;;;;;5056912;28;20199;-88
2023/07/17 01:28:45;;;;;;;3.40;2.50;;;26.30;49.40;;;;;;5039446;28;20184;-88
2023/07/17 01:31:12;;;;;;;2.97;2.50;;;26.30;49.40;;;;;;5045003;28;20202;-88
2023/07/17 01:33:38;;;;;;;2.83;2.10;;;26.30;49.90;;;;;;5043501;28;20176;-88
2023/07/17 01:36:05;;;;;;;3.73;2.30;;;26.30;49.50;;;;;;5056259;28;20230;-88
2023/07/17 01:38:31;;;;;;;2.77;2.30;;;26.30;49.50;;;;;;5011646;28;20195;-89
2023/07/17 01:40:57;;;;;;;2.87;2.50;;;26.20;49.50;;;;;;5041958;28;20176;-88
2023/07/17 01:43:23;;;;;;;2.57;2.30;;;26.30;49.50;;;;;;5036322;28;20478;-88
2023/07/17 01:45:49;;;;;;;2.40;2.20;;;26.20;49.50;;;;;;5043478;28;20195;-88
2023/07/17 01:48:17;;;;;;;3.10;2.30;;;26.30;49.50;;;;;;5037328;28;20192;-88
2023/07/17 01:50:45;;;;;;;2.80;2.33;;;26.20;49.50;;;;;;5054611;28;20191;-88
2023/07/17 01:53:11;;;;;;;3.40;2.50;;;26.20;49.50;;;;;;5041347;28;20510;-89
2023/07/17 01:55:37;;;;;;;2.50;2.30;;;26.20;49.50;;;;;;5023848;28;20435;-88
2023/07/17 01:58:03;;;;;;;3.30;2.23;;;26.20;49.50;;;;;;5029095;28;20458;-88
2023/07/17 02:00:29;;;;;;;2.60;2.40;;;26.20;49.60;;;;;;5033826;28;20231;-89
2023/07/17 02:02:55;;;;;;;3.50;2.57;;;26.20;49.60;;;;;;5044581;28;20448;-88
2023/07/17 02:05:20;;;;;;;2.77;2.30;;;26.20;49.60;;;;;;5035815;28;20188;-88
2023/07/17 02:07:47;;;;;;;2.40;2.20;;;26.10;49.60;;;;;;5054053;28;20186;-88
2023/07/17 02:10:12;;;;;;;3.07;2.30;;;26.10;49.60;;;;;;5037145;28;20198;-89
2023/07/17 02:12:38;;;;;;;2.97;2.63;;;26.10;49.60;;;;;;5043213;28;20188;-89
2023/07/17 02:15:06;;;;;;;2.90;2.30;;;26.10;49.60;;;;;;5054032;28;20211;-89
2023/07/17 02:17:32;;;;;;;2.27;2.07;;;26.10;49.60;;;;;;5035892;28;20425;-89
2023/07/17 02:19:58;;;;;;;3.27;2.50;;;26.10;49.70;;;;;;5044200;28;20214;-89
2023/07/17 02:22:24;;;;;;;2.50;2.30;;;26.10;49.70;;;;;;5037314;28;20185;-89
2023/07/17 02:24:50;;;;;;;2.60;2.33;;;26.10;49.70;;;;;;5045179;28;20176;-89
2023/07/17 02:27:16;;;;;;;2.40;2.20;;;26.10;49.60;;;;;;5055243;28;20180;-89
2023/07/17 02:29:42;;;;;;;2.30;2.10;;;26.10;49.70;;;;;;5037131;28;20194;-90
2023/07/17 02:32:07;;;;;;;2.40;2.20;;;26.10;49.70;;;;;;5046405;28;20300;-89
2023/07/17 02:34:33;;;;;;;2.63;2.20;;;26.10;49.70;;;;;;5037281;28;20216;-89
2023/07/17 02:36:59;;;;;;;2.83;2.47;;;26.10;49.70;;;;;;5046018;28;20635;-88
2023/07/17 02:39:25;;;;;;;2.40;2.20;;;26.10;49.70;;;;;;5036522;28;20177;-89
2023/07/17 02:41:50;;;;;;;2.80;2.40;;;26.10;49.70;;;;;;5045818;28;20550;-89
2023/07/17 02:44:17;;;;;;;2.17;1.97;;;26.10;49.70;;;;;;5045083;28;20206;-89
2023/07/17 02:46:43;;;;;;;2.60;2.30;;;26.10;49.70;;;;;;5037585;28;20219;-89
2023/07/17 02:49:11;;;;;;;2.83;2.37;;;26.00;49.70;;;;;;5035112;28;20227;-89
2023/07/17 02:51:37;;;;;;;2.50;2.30;;;26.00;49.70;;;;;;5041723;28;20487;-89
2023/07/17 02:54:03;;;;;;;2.10;1.90;;;26.00;49.70;;;;;;5029271;28;20189;-88
2023/07/17 02:56:29;;;;;;;3.20;2.30;;;26.00;49.70;;;;;;5050122;28;20542;-89
2023/07/17 02:58:54;;;;;;;2.80;2.10;;;26.00;49.70;;;;;;5035600;28;20547;-89
2023/07/17 03:01:20;;;;;;;3.20;2.30;;;26.00;49.70;;;;;;5035551;28;20191;-89
2023/07/17 03:03:47;;;;;;;2.40;2.03;;;25.90;49.70;;;;;;5035836;28;20584;-89
2023/07/17 03:06:12;;;;;;;2.27;2.07;;;25.90;49.70;;;;;;5035999;28;20191;-89
2023/07/17 03:08:38;;;;;;;2.40;2.10;;;25.90;49.70;;;;;;5044767;28;20423;-89
2023/07/17 03:11:04;;;;;;;2.33;1.93;;;25.90;49.70;;;;;;5036012;28;20194;-89
2023/07/17 03:13:30;;;;;;;2.20;2.00;;;25.90;49.70;;;;;;5047426;28;20275;-89
2023/07/17 03:15:58;;;;;;;2.67;2.17;;;25.90;49.70;;;;;;5044665;28;20204;-88
2023/07/17 03:18:25;;;;;;;2.03;1.83;;;25.90;49.70;;;;;;5054425;28;20176;-89
2023/07/17 03:20:51;;;;;;;2.40;2.20;;;25.90;49.70;;;;;;5033082;28;20207;-89
2023/07/17 03:23:17;;;;;;;2.10;1.90;;;25.90;49.80;;;;;;5044807;28;20187;-89
2023/07/17 03:25:43;;;;;;;2.33;2.13;;;25.80;49.80;;;;;;5036086;28;20185;-89
2023/07/17 03:28:09;;;;;;;2.63;1.70;;;25.80;49.80;;;;;;5045473;28;20215;-89
2023/07/17 03:30:35;;;;;;;2.47;1.90;;;25.80;49.80;;;;;;5037546;28;20192;-89
2023/07/17 03:33:01;;;;;;;2.03;1.83;;;25.80;49.80;;;;;;5049209;28;20241;-89
2023/07/17 03:35:27;;;;;;;2.30;2.10;;;25.80;49.80;;;;;;5056748;28;20222;-89
2023/07/17 03:37:52;;;;;;;2.50;2.13;;;25.80;49.80;;;;;;5057433;28;20172;-89
2023/07/17 03:40:18;;;;;;;2.47;2.27;;;25.80;49.70;;;;;;5047778;28;20180;-89
2023/07/17 03:42:44;;;;;;;2.17;1.97;;;25.80;49.80;;;;;;5055893;28;20189;-89
2023/07/17 03:45:10;;;;;;;2.00;1.80;;;25.80;49.80;;;;;;5047448;28;20184;-89
2023/07/17 03:47:35;;;;;;;2.27;2.07;;;25.80;49.70;;;;;;5038249;28;20398;-89
2023/07/17 03:50:01;;;;;;;2.00;1.90;;;25.80;49.80;;;;;;5039076;28;20299;-89
2023/07/17 03:52:27;;;;;;;2.17;1.97;;;25.80;49.80;;;;;;5047063;28;20463;-89
2023/07/17 03:54:53;;;;;;;1.73;1.63;;;25.80;49.70;;;;;;5036259;28;20277;-89
2023/07/17 03:57:18;;;;;;;2.20;2.00;;;25.80;49.80;;;;;;5044691;28;20180;-89
2023/07/17 03:59:53;;;;;;;2.23;2.03;;;25.70;49.70;;;;;;5033562;28;20180;-89
2023/07/17 04:02:19;;;;;;;2.07;1.80;;;25.70;49.70;;;;;;5029059;28;20424;-89
2023/07/17 04:04:45;;;;;;;2.63;1.93;;;25.70;49.70;;;;;;5053088;28;20195;-89
2023/07/17 04:07:11;;;;;;;2.17;1.80;;;25.70;49.80;;;;;;5037339;28;20231;-89
2023/07/17 04:09:37;;;;;;;1.93;1.77;;;25.70;49.80;;;;;;5044972;28;20249;-89
2023/07/17 04:12:04;;;;;;;1.87;1.77;;;25.70;49.80;;;;;;5036083;28;20183;-89
2023/07/17 04:14:33;;;;;;;1.93;1.73;;;25.70;49.70;;;;;;5044845;28;20215;-89
2023/07/17 04:17:00;;;;;;;2.47;1.90;;;25.70;49.80;;;;;;5036679;28;20185;-90
2023/07/17 04:19:27;;;;;;;1.53;1.43;;;25.70;49.80;;;;;;5047216;28;20187;-89
2023/07/17 04:21:53;;;;;;;2.10;1.90;;;25.70;49.80;;;;;;5036446;28;20188;-89
2023/07/17 04:24:19;;;;;;;2.17;1.80;;;25.70;49.80;;;;;;5044595;28;20478;-89
2023/07/17 04:26:45;;;;;;;2.30;1.90;;;25.70;49.80;;;;;;5033835;28;20573;-89
2023/07/17 04:29:10;;;;;;;2.00;1.80;;;25.70;49.80;;;;;;5052954;28;20493;-89
2023/07/17 04:31:36;;;;;;;2.67;2.13;;;25.70;49.90;;;;;;5035288;28;20195;-89
2023/07/17 04:34:02;;;;;;;2.80;1.67;;;25.70;49.80;;;;;;5047427;28;20187;-89
2023/07/17 04:36:28;;;;;;;1.97;1.77;;;25.70;49.80;;;;;;5033488;28;20475;-90
2023/07/17 04:38:53;;;;;;;1.90;1.70;;;25.70;49.80;;;;;;5045540;28;20188;-89
2023/07/17 04:41:19;;;;;;;1.73;1.63;;;25.80;49.80;;;;;;5044408;28;20570;-90
2023/07/17 04:43:45;;;;;;;3.27;2.10;;;25.80;49.80;;;;;;5032631;28;20291;-90
2023/07/17 04:46:11;;;;;;;1.67;1.50;;;25.80;49.70;;;;;;5027032;28;20184;-90
2023/07/17 04:48:36;;;;;;;2.67;1.70;;;25.90;49.80;;;;;;5035435;28;20195;-90
2023/07/17 04:51:02;;;;;;;2.20;1.57;;;25.90;49.70;;;;;;5044649;28;20191;-90
2023/07/17 04:53:28;;;;;;;2.03;1.87;;;25.90;49.70;;;;;;5044824;28;20188;-90
2023/07/17 04:55:54;;;;;;;2.23;1.73;;;25.90;49.60;;;;;;5052237;28;20211;-90
2023/07/17 04:58:19;;;;;;;2.23;1.80;;;26.00;49.60;;;;;;5036329;28;20180;-90
2023/07/17 05:00:47;;;;;;;2.07;1.80;;;26.00;49.60;;;;;;5052957;28;20251;-90
2023/07/17 05:03:13;;;;;;;2.53;1.90;;;26.00;49.50;;;;;;5032092;28;20616;-90
2023/07/17 05:05:40;;;;;;;2.03;1.70;;;26.10;49.50;;;;;;5052473;28;20465;-90
2023/07/17 05:08:06;;;;;;;1.67;1.57;;;26.10;49.50;;;;;;5044114;28;20223;-90
2023/07/17 05:10:31;;;;;;;1.77;1.67;;;26.10;49.40;;;;;;5033761;28;20184;-90
2023/07/17 05:12:59;;;;;;;2.27;1.43;;;26.10;49.40;;;;;;5034420;28;20360;-89
2023/07/17 05:15:25;;;;;;;2.03;1.80;;;26.10;49.40;;;;;;5033251;28;20223;-90
2023/07/17 05:17:51;;;;;;;2.17;1.90;;;26.10;49.40;;;;;;5043356;28;20249;-90
2023/07/17 05:20:16;;;;;;;2.27;1.60;;;26.10;49.40;;;;;;5043853;28;20298;-90
2023/07/17 05:22:42;;;;;;;1.93;1.70;;;26.10;49.40;;;;;;5035832;28;20176;-90
2023/07/17 05:25:08;;;;;;;2.17;1.80;;;26.10;49.40;;;;;;5044560;28;20207;-90
2023/07/17 05:27:34;;;;;;;1.83;1.60;;;26.10;49.30;;;;;;5035546;28;20187;-90
2023/07/17 05:29:59;;;;;;;3.43;2.07;;;26.20;49.40;;;;;;5036045;28;20200;-91
2023/07/17 05:32:27;;;;;;;1.93;1.57;;;26.20;49.30;;;;;;5053301;28;20595;-90
2023/07/17 05:34:53;;;;;;;2.00;1.60;;;26.20;49.40;;;;;;5052368;28;20285;-90
2023/07/17 05:37:20;;;;;;;2.17;1.53;;;26.20;49.40;;;;;;5043846;28;20184;-90
2023/07/17 05:39:45;;;;;;;1.60;1.50;;;26.10;49.40;;;;;;5041319;28;20187;-90
2023/07/17 05:42:11;;;;;;;2.47;1.53;;;26.20;49.50;;;;;;5045028;28;20282;-89
2023/07/17 05:44:37;;;;;;;2.17;1.50;;;26.20;49.60;;;;;;5029494;28;20204;-90
2023/07/17 05:47:03;;;;;;;1.63;1.53;;;26.20;49.50;;;;;;5040539;28;20315;-89
2023/07/17 05:49:28;;;;;;;1.93;1.70;;;26.20;49.50;;;;;;5040791;28;20180;-90
2023/07/17 05:51:55;;;;;;;1.67;1.43;;;26.30;49.50;;;;;;5026471;28;20181;-90
2023/07/17 05:54:22;;;;;;;2.23;1.80;;;26.30;49.40;;;;;;5028835;28;20223;-90
2023/07/17 05:56:47;;;;;;;1.80;1.60;;;26.40;49.40;;;;;;5028078;28;20187;-90
2023/07/17 05:59:14;;;;;;;2.20;1.50;;;26.30;49.40;;;;;;5026583;28;20181;-90
2023/07/17 06:01:40;;;;;;;1.50;1.40;;;26.30;49.50;;;;;;5037938;28;20235;-89
2023/07/17 06:04:06;;;;;;;1.80;1.60;;;26.30;49.50;;;;;;5028395;28;20289;-89
2023/07/17 06:06:32;;;;;;;2.67;1.80;;;26.30;49.60;;;;;;5035371;28;20176;-90
2023/07/17 06:09:00;;;;;;;2.20;2.00;;;26.30;49.60;;;;;;5026469;28;20506;-89
2023/07/17 06:11:26;;;;;;;2.97;1.80;;;26.30;49.70;;;;;;5037510;28;20188;-89
2023/07/17 06:13:52;;;;;;;2.07;1.87;;;26.30;49.60;;;;;;5029932;28;20190;-90
2023/07/17 06:16:17;;;;;;;3.47;1.63;;;26.40;49.60;;;;;;5029043;28;20222;-89
2023/07/17 06:18:43;;;;;;;2.67;1.80;;;26.50;49.60;;;;;;5026618;28;20172;-91
2023/07/17 06:21:09;;;;;;;2.70;2.00;;;26.50;49.60;;;;;;5026824;28;20180;-90
2023/07/17 06:23:35;;;;;;;3.47;2.00;;;26.50;49.60;;;;;;5036787;28;20265;-90
2023/07/17 06:26:00;;;;;;;3.00;2.07;;;26.50;49.60;;;;;;5027427;28;20180;-90
2023/07/17 06:28:29;;;;;;;2.90;1.80;;;26.50;49.50;;;;;;5034444;28;20358;-90
2023/07/17 06:30:55;;;;;;;2.10;1.83;;;26.50;49.40;;;;;;5027412;28;20188;-90
2023/07/17 06:33:21;;;;;;;2.50;1.90;;;26.60;49.40;;;;;;5038601;28;20184;-90
2023/07/17 06:35:48;;;;;;;2.73;1.80;;;26.60;49.40;;;;;;5027295;28;20327;-90
2023/07/17 06:38:13;;;;;;;2.20;1.90;;;26.60;49.40;;;;;;5027393;28;20416;-90
2023/07/17 06:40:39;;;;;;;2.30;2.10;;;26.60;49.30;;;;;;5046317;28;20177;-90
2023/07/17 06:43:05;;;;;;;3.37;2.20;;;26.70;49.40;;;;;;5028984;28;20180;-90
2023/07/17 06:45:31;;;;;;;3.17;2.20;;;26.70;49.40;;;;;;5038620;28;20179;-90
2023/07/17 06:47:56;;;;;;;4.27;2.30;;;26.70;49.30;;;;;;5028167;28;20728;-90
2023/07/17 06:50:22;;;;;;;3.43;2.27;;;26.70;49.30;;;;;;5022539;28;20238;-90
2023/07/17 06:52:48;;;;;;;2.60;2.10;;;26.70;49.20;;;;;;5038424;28;20196;-90
2023/07/17 06:55:13;;;;;;;2.00;1.80;;;26.70;49.20;;;;;;5028047;28;20593;-89
2023/07/17 06:57:39;;;;;;;3.17;2.33;;;26.80;49.30;;;;;;5036274;28;20176;-90
2023/07/17 07:00:05;;;;;;;3.67;2.20;;;26.80;49.20;;;;;;5034981;28;20180;-90
2023/07/17 07:02:31;;;;;;;3.20;2.33;;;26.80;49.20;;;;;;5026816;28;20263;-90
2023/07/17 07:04:57;;;;;;;2.60;2.00;;;26.80;49.10;;;;;;5027368;28;20276;-89
2023/07/17 07:07:23;;;;;;;3.67;2.53;;;26.80;49.10;;;;;;5040066;28;20218;-90
2023/07/17 07:09:49;;;;;;;2.97;2.27;;;26.90;49.10;;;;;;5031408;28;20294;-90
2023/07/17 07:12:15;;;;;;;3.67;2.57;;;26.90;49.00;;;;;;5039348;28;20188;-89
2023/07/17 07:14:41;;;;;;;3.27;2.50;;;26.90;49.00;;;;;;5029951;28;20296;-89
2023/07/17 07:17:07;;;;;;;3.73;2.70;;;27.00;49.00;;;;;;5048855;28;20369;-90
2023/07/17 07:19:33;;;;;;;3.80;2.90;;;27.00;48.90;;;;;;5050288;28;20172;-89
2023/07/17 07:21:59;;;;;;;4.00;2.87;;;27.00;48.90;;;;;;5031712;28;20188;-89
2023/07/17 07:24:25;;;;;;;4.83;2.70;;;27.00;48.80;;;;;;5040069;28;20184;-90
2023/07/17 07:26:50;;;;;;;4.07;2.60;;;27.10;48.80;;;;;;5031631;28;20483;-89
2023/07/17 07:29:17;;;;;;;2.80;2.60;;;27.10;48.80;;;;;;5039698;28;20180;-90
2023/07/17 07:31:43;;;;;;;3.10;2.67;;;27.10;48.80;;;;;;5031018;28;20183;-90
2023/07/17 07:34:09;;;;;;;4.30;2.97;;;27.10;48.70;;;;;;5037399;28;20184;-90
2023/07/17 07:36:34;;;;;;;4.27;2.93;;;27.10;48.70;;;;;;5040633;28;20207;-90
2023/07/17 07:39:00;;;;;;;4.27;3.23;;;27.20;48.70;;;;;;5048787;28;20318;-90
2023/07/17 07:41:26;;;;;;;4.30;3.13;;;27.20;48.60;;;;;;5038340;28;20184;-89
2023/07/17 07:43:51;;;;;;;3.60;3.03;;;27.20;48.50;;;;;;5039849;28;20298;-89
2023/07/17 07:46:17;;;;;;;3.73;3.00;;;27.20;48.50;;;;;;5035287;28;20184;-89
2023/07/17 07:48:44;;;;;;;5.60;3.60;;;27.30;48.50;;;;;;5039797;28;20180;-90
2023/07/17 07:51:09;;;;;;;5.10;3.23;;;27.30;48.50;;;;;;5031451;28;20631;-89
2023/07/17 07:53:35;;;;;;;4.47;3.10;;;27.40;48.40;;;;;;5032398;28;20179;-90
2023/07/17 07:56:01;;;;;;;4.03;2.97;;;27.40;48.40;;;;;;5050842;28;20200;-90
2023/07/17 07:58:27;;;;;;;5.13;3.40;;;27.50;48.40;;;;;;5049868;28;20474;-90
2023/07/17 08:00:53;;;;;;;4.28;3.55;;;27.50;48.30;;;;;;5052115;28;20345;-90
2023/07/17 08:03:19;;;;;;;4.47;3.10;;;27.60;48.20;;;;;;5042064;28;20424;-90
2023/07/17 08:05:44;;;;;;;4.90;3.42;;;27.70;48.20;;;;;;5039902;28;20195;-90
2023/07/17 08:08:10;;;;;;;4.82;3.28;;;27.80;48.00;;;;;;5030754;28;20227;-90
2023/07/17 08:10:38;;;;;;;4.43;3.40;;;27.90;48.00;;;;;;5040948;28;20184;-90
2023/07/17 08:13:04;;;;;;;4.07;3.22;;;28.00;47.90;;;;;;5029549;28;20459;-91
2023/07/17 08:15:31;;;;;;;3.97;3.28;;;28.00;47.80;;;;;;5017071;28;20646;-91
2023/07/17 08:17:58;;;;;;;4.45;3.65;;;28.20;47.80;;;;;;5035425;28;20175;-89
2023/07/17 08:20:24;;;;;;;3.78;3.20;;;28.30;47.60;;;;;;5045797;28;20467;-89
2023/07/17 08:22:54;;;;;;;4.03;3.55;;;28.30;47.60;;;;;;5025706;28;20176;-90
2023/07/17 08:25:23;;;;;;;4.28;3.40;;;28.30;47.50;;;;;;5026179;28;20246;-91
2023/07/17 08:27:49;;;;;;;5.30;3.80;;;28.50;47.40;;;;;;5026285;28;20184;-89
2023/07/17 08:30:15;;;;;;;5.03;3.45;;;28.50;47.40;;;;;;5028592;28;20570;-91
2023/07/17 08:32:41;;;;;;;3.80;3.30;;;28.50;47.20;;;;;;5034455;28;20184;-90
2023/07/17 08:35:08;;;;;;;4.50;3.70;;;28.50;47.20;;;;;;5026272;28;20267;-90
2023/07/17 08:37:34;;;;;;;3.85;3.42;;;28.60;47.20;;;;;;5032175;28;20573;-90
2023/07/17 08:39:59;;;;;;;4.18;3.50;;;28.60;47.60;;;;;;5026060;28;20184;-90
2023/07/17 08:42:25;;;;;;;3.80;3.40;;;28.50;47.20;;;;;;5025488;28;20625;-90
2023/07/17 08:44:52;;;;;;;4.97;3.58;;;28.60;47.10;;;;;;5009054;28;20474;-91
2023/07/17 08:47:20;;;;;;;4.75;3.80;;;28.70;47.10;;;;;;5025229;28;20186;-90
2023/07/17 08:49:46;;;;;;;5.65;3.55;;;28.70;47.00;;;;;;5033777;28;20198;-90
2023/07/17 08:52:13;;;;;;;3.95;3.30;;;28.70;47.00;;;;;;5054301;28;20250;-91
2023/07/17 08:54:39;;;;;;;5.03;3.58;;;28.80;47.10;;;;;;5037438;28;20204;-90
2023/07/17 08:57:05;;;;;;;4.03;3.28;;;28.80;47.10;;;;;;5020122;28;20183;-90
2023/07/17 08:59:32;;;;;;;6.00;3.80;;;28.80;47.10;;;;;;5047377;28;20550;-90
2023/07/17 09:01:59;;;;;;;4.68;3.83;;;28.80;47.00;;;;;;5040279;28;20358;-90
2023/07/17 09:04:27;;;;;;;3.90;3.15;;;28.70;47.00;;;;;;5038746;28;20245;-89
2023/07/17 09:06:52;;;;;;;4.97;3.45;;;28.80;47.10;;;;;;5029651;28;20432;-90
2023/07/17 09:09:19;;;;;;;4.30;3.38;;;28.80;47.10;;;;;;5037855;28;20286;-90
2023/07/17 09:11:44;;;;;;;3.85;3.45;;;28.80;47.00;;;;;;5030114;28;20483;-89
2023/07/17 09:14:10;;;;;;;4.47;3.35;;;28.80;47.10;;;;;;5036490;28;20176;-90
2023/07/17 09:16:38;;;;;;;5.07;3.60;;;28.80;47.10;;;;;;5046046;28;20554;-89
2023/07/17 09:19:04;;;;;;;4.35;3.53;;;28.80;47.00;;;;;;5027354;28;20216;-89
2023/07/17 09:21:30;;;;;;;4.38;3.30;;;28.70;47.10;;;;;;5037530;28;20438;-89
2023/07/17 09:23:56;;;;;;;4.80;3.75;;;28.70;47.20;;;;;;5026300;28;20180;-90
2023/07/17 09:26:24;;;;;;;4.93;3.45;;;28.60;47.20;;;;;;5027744;28;20400;-90
2023/07/17 09:28:58;;;;;;;4.20;3.22;;;28.60;47.20;;;;;;5036596;28;20276;-90
2023/07/17 09:31:27;;;;;;;4.80;3.45;;;28.60;47.20;;;;;;5016597;28;20184;-89
2023/07/17 09:33:54;;;;;;;4.20;3.55;;;28.60;47.30;;;;;;5035581;28;20180;-90
2023/07/17 09:36:21;;;;;;;4.20;3.47;;;28.60;47.30;;;;;;5027718;28;20216;-89
2023/07/17 09:38:55;;;;;;;3.28;2.92;;;28.60;47.30;;;;;;5038928;28;20274;-89
2023/07/17 09:41:28;;;;;;;3.88;3.20;;;28.50;47.40;;;;;;5028875;28;20396;-90
2023/07/17 09:43:59;;;;;;;3.97;3.25;;;28.50;47.40;;;;;;5035791;28;20168;-90
2023/07/17 09:46:26;;;;;;;5.03;3.00;;;28.50;47.40;;;;;;5036408;28;20187;-89
2023/07/17 09:48:53;;;;;;;4.38;3.30;;;28.50;47.40;;;;;;5037742;28;20184;-89
2023/07/17 09:51:20;;;;;;;3.42;2.90;;;28.50;47.40;;;;;;5039805;28;20269;-89
2023/07/17 09:53:46;;;;;;;4.47;3.30;;;28.50;47.40;;;;;;5036176;28;20361;-89
2023/07/17 09:56:15;;;;;;;3.63;3.13;;;28.50;47.50;;;;;;5028498;28;20235;-89
2023/07/17 09:58:48;;;;;;;3.58;3.00;;;28.50;47.50;;;;;;5037066;28;20252;-89
2023/07/17 10:01:16;;;;;;;5.30;3.10;;;28.50;47.40;;;;;;5025332;28;20275;-89
2023/07/17 10:03:47;;;;;;;4.05;3.47;;;28.50;47.40;;;;;;5044270;28;20164;-89
2023/07/17 10:06:18;;;;;;;4.15;3.10;;;28.50;47.40;;;;;;5016092;28;20274;-89
2023/07/17 10:08:47;;;;;;;4.68;3.35;;;28.50;47.40;;;;;;5025174;28;20382;-90
2023/07/17 10:11:16;;;;;;;3.83;3.05;;;28.50;47.40;;;;;;5029804;28;20429;-89
2023/07/17 10:13:47;;;;;;;3.88;3.30;;;28.60;47.40;;;;;;5028331;28;20484;-89
2023/07/17 10:16:18;;;;;;;3.53;3.10;;;28.60;47.40;;;;;;5032222;28;20204;-90
2023/07/17 10:18:49;;;;;;;3.85;3.17;;;28.50;47.30;;;;;;5023262;28;20207;-88
2023/07/17 10:21:19;;;;;;;4.82;3.88;;;28.60;47.40;;;;;;5017600;28;20164;-89
2023/07/17 10:23:45;;;;;;;4.93;3.00;;;28.60;47.30;;;;;;5026412;28;20196;-89
2023/07/17 10:26:14;;;;;;;3.40;2.88;;;28.50;47.20;;;;;;5028735;28;20187;-89
2023/07/17 10:28:41;;;;;;;4.60;3.00;;;28.50;47.20;;;;;;5045687;28;20378;-88
2023/07/17 10:31:18;;;;;;;4.50;3.17;;;28.50;47.10;;;;;;5036972;28;20283;-89
2023/07/17 10:33:53;;;;;;;5.55;3.60;;;28.50;47.20;;;;;;5046694;28;20199;-89
2023/07/17 10:36:39;;;;;;;5.25;3.38;;;28.50;47.20;;;;;;5027252;28;20290;-89
2023/07/17 10:39:07;;;;;;;3.63;3.00;;;28.50;47.20;;;;;;5041706;28;20241;-88
2023/07/17 10:41:36;;;;;;;4.50;3.43;;;28.40;47.10;;;;;;5026173;28;20432;-88
2023/07/17 10:44:07;;;;;;;3.63;2.73;;;28.50;47.10;;;;;;5034543;28;20183;-89
2023/07/17 10:46:36;;;;;;;4.88;3.38;;;28.50;46.90;;;;;;5045256;28;20172;-89
2023/07/17 10:49:13;;;;;;;4.03;2.80;;;28.40;46.70;;;;;;5026391;28;20459;-89
2023/07/17 10:51:47;;;;;;;4.22;2.90;;;28.40;46.70;;;;;;5039172;28;20619;-88
2023/07/17 10:54:14;;;;;;;4.17;2.77;;;28.40;46.80;;;;;;5031428;28;20589;-89
2023/07/17 10:56:45;;;;;;;3.13;2.83;;;28.30;46.80;;;;;;5032805;28;20184;-89
2023/07/17 10:59:11;;;;;;;4.03;3.10;;;28.30;46.80;;;;;;5024361;28;20508;-89
2023/07/17 11:01:37;;;;;;;3.87;3.10;;;28.30;46.80;;;;;;5032420;28;20235;-88
2023/07/17 11:04:07;;;;;;;4.18;2.85;;;28.30;46.80;;;;;;5024475;28;20404;-88
2023/07/17 11:06:33;;;;;;;3.53;2.80;;;28.30;46.70;;;;;;5031400;28;20451;-89
2023/07/17 11:08:59;;;;;;;3.60;2.70;;;28.30;46.60;;;;;;5019735;28;20260;-89
2023/07/17 11:11:25;;;;;;;4.07;3.20;;;28.30;46.50;;;;;;5032030;28;20249;-88
2023/07/17 11:13:54;;;;;;;3.80;2.87;;;28.20;46.50;;;;;;5031506;28;20419;-89
2023/07/17 11:16:21;;;;;;;4.83;3.10;;;28.20;46.50;;;;;;5018265;28;20329;-89
2023/07/17 11:18:49;;;;;;;3.80;2.80;;;28.20;46.70;;;;;;5024698;28;20176;-88
2023/07/17 11:21:17;;;;;;;4.03;3.13;;;28.10;46.70;;;;;;5025636;28;20187;-88
2023/07/17 11:23:49;;;;;;;3.23;2.67;;;28.20;46.60;;;;;;5034915;28;20219;-88
2023/07/17 11:26:21;;;;;;;5.43;3.33;;;28.20;46.60;;;;;;5044350;28;20187;-88
2023/07/17 11:28:54;;;;;;;3.73;2.90;;;28.20;46.60;;;;;;5021557;28;20193;-88
2023/07/17 11:31:25;;;;;;;4.17;3.40;;;28.20;46.70;;;;;;5025978;28;20216;-88
2023/07/17 11:34:04;;;;;;;4.93;2.93;;;28.20;46.50;;;;;;5024760;28;20499;-89
2023/07/17 11:36:45;;;;;;;4.27;3.10;;;28.20;46.60;;;;;;5033266;28;20220;-88
2023/07/17 11:39:20;;;;;;;4.30;3.27;;;28.20;46.70;;;;;;5037039;28;20550;-88
2023/07/17 11:41:52;;;;;;;4.33;3.20;;;28.20;46.50;;;;;;5024601;28;20226;-88
2023/07/17 11:44:29;;;;;;;3.67;2.90;;;28.10;46.60;;;;;;5033463;28;20253;-88
2023/07/17 11:47:04;;;;;;;4.73;3.17;;;28.00;46.60;;;;;;5012518;28;20291;-89
2023/07/17 11:49:29;;;;;;;6.27;3.63;;;28.00;46.60;;;;;;5040393;28;20446;-88
2023/07/17 11:51:58;;;;;;;3.80;3.10;;;28.10;46.60;;;;;;5023279;28;20190;-88
2023/07/17 11:54:36;;;;;;;4.23;3.10;;;28.00;46.60;;;;;;5043943;28;20559;-88
2023/07/17 11:57:03;;;;;;;5.53;3.50;;;28.00;46.60;;;;;;5040630;28;20199;-89
2023/07/17 11:59:30;;;;;;;3.80;2.90;;;28.10;46.60;;;;;;5034454;28;20343;-89
2023/07/17 12:01:56;;;;;;;6.37;3.10;;;28.00;46.70;;;;;;5040930;28;20180;-89
2023/07/17 12:04:23;;;;;;;5.00;3.20;;;28.00;46.70;;;;;;5042770;28;20515;-88
2023/07/17 12:06:50;;;;;;;5.63;3.20;;;28.10;47.00;;;;;;5030369;28;20663;-89
2023/07/17 12:09:16;;;;;;;4.33;3.20;;;28.10;46.70;;;;;;5034775;28;20180;-89
2023/07/17 12:11:44;;;;;;;4.43;3.40;;;28.00;46.60;;;;;;5037868;28;20187;-88
2023/07/17 12:14:10;;;;;;;3.77;2.87;;;28.10;46.60;;;;;;5031496;28;20292;-89
2023/07/17 12:16:36;;;;;;;3.77;3.20;;;28.10;46.70;;;;;;5038784;28;20212;-89
2023/07/17 12:19:03;;;;;;;3.95;3.15;;;28.10;46.60;;;;;;5033109;28;20259;-88
2023/07/17 12:21:28;;;;;;;4.45;3.38;;;28.10;46.50;;;;;;5030504;28;20527;-88
2023/07/17 12:23:54;;;;;;;3.70;2.90;;;28.10;46.50;;;;;;5038871;28;20191;-88
2023/07/17 12:26:20;;;;;;;4.07;3.13;;;28.10;46.50;;;;;;5025587;28;20191;-88
2023/07/17 12:28:45;;;;;;;5.40;3.77;;;28.10;46.40;;;;;;5044368;28;20186;-89
2023/07/17 12:31:11;;;;;;;3.58;3.28;;;28.10;46.40;;;;;;5028184;28;20541;-89
2023/07/17 12:33:37;;;;;;;6.60;3.33;;;28.10;46.50;;;;;;5020890;28;20177;-88
2023/07/17 12:36:02;;;;;;;4.90;3.50;;;28.10;46.40;;;;;;5027998;28;20471;-89
2023/07/17 12:38:28;;;;;;;4.67;3.40;;;28.10;46.40;;;;;;5037350;28;20516;-89
2023/07/17 12:40:54;;;;;;;5.82;3.55;;;28.10;46.40;;;;;;5045230;28;20177;-87
2023/07/17 12:43:19;;;;;;;4.80;3.47;;;28.10;46.30;;;;;;5044685;28;20188;-89
2023/07/17 12:45:45;;;;;;;3.45;3.05;;;28.10;46.30;;;;;;5028026;28;20346;-88